sensor_id;sensor_type;location;lat;lon;timestamp;temperature;humidity
19110;DHT22;9687;50.836;12.060;2024-03-17T00:01:25;7.20;74.40
19110;DHT22;9687;50.836;12.060;2024-03-17T00:03:54;7.20;74.40
19110;DHT22;9687;50.836;12.060;2024-03-17T00:06:21;7.20;74.50
19110;DHT22;9687;50.836;12.060;2024-03-17T00:08:49;7.10;74.60
19110;DHT22;9687;50.836;12.060;2024-03-17T00:11:16;7.10;74.60
19110;DHT22;9687;50.836;12.060;2024-03-17T00:13:45;7.00;75.40
19110;DHT22;9687;50.836;12.060;2024-03-17T00:16:13;7.00;74.60
19110;DHT22;9687;50.836;12.060;2024-03-17T00:18:45;7.00;74.80
19110;DHT22;9687;50.836;12.060;2024-03-17T00:21:16;7.00;74.90
19110;DHT22;9687;50.836;12.060;2024-03-17T00:23:43;6.90;74.90
19110;DHT22;9687;50.836;12.060;2024-03-17T00:26:11;6.80;75.20
19110;DHT22;9687;50.836;12.060;2024-03-17T00:28:38;6.70;75.20
19110;DHT22;9687;50.836;12.060;2024-03-17T00:31:07;6.60;75.20
19110;DHT22;9687;50.836;12.060;2024-03-17T00:33:36;6.50;75.40
19110;DHT22;9687;50.836;12.060;2024-03-17T00:36:04;6.40;75.60
19110;DHT22;9687;50.836;12.060;2024-03-17T00:38:33;6.40;75.70
19110;DHT22;9687;50.836;12.060;2024-03-17T00:41:03;6.30;75.90
19110;DHT22;9687;50.836;12.060;2024-03-17T00:43:30;6.20;76.00
19110;DHT22;9687;50.836;12.060;2024-03-17T00:45:58;6.10;76.30
19110;DHT22;9687;50.836;12.060;2024-03-17T00:48:26;6.00;76.50
19110;DHT22;9687;50.836;12.060;2024-03-17T00:50:55;5.90;76.70
19110;DHT22;9687;50.836;12.060;2024-03-17T00:53:22;5.80;76.90
19110;DHT22;9687;50.836;12.060;2024-03-17T00:55:53;5.80;77.40
19110;DHT22;9687;50.836;12.060;2024-03-17T00:58:21;5.60;77.70
19110;DHT22;9687;50.836;12.060;2024-03-17T01:00:49;5.50;77.90
19110;DHT22;9687;50.836;12.060;2024-03-17T01:03:16;5.40;78.30
19110;DHT22;9687;50.836;12.060;2024-03-17T01:05:46;5.30;78.90
19110;DHT22;9687;50.836;12.060;2024-03-17T01:08:14;5.30;79.00
19110;DHT22;9687;50.836;12.060;2024-03-17T01:10:44;5.20;79.20
19110;DHT22;9687;50.836;12.060;2024-03-17T01:13:13;5.20;79.40
19110;DHT22;9687;50.836;12.060;2024-03-17T01:15:40;5.20;79.70
19110;DHT22;9687;50.836;12.060;2024-03-17T01:18:08;5.20;79.70
19110;DHT22;9687;50.836;12.060;2024-03-17T01:20:37;5.30;79.80
19110;DHT22;9687;50.836;12.060;2024-03-17T01:23:05;5.30;79.90
19110;DHT22;9687;50.836;12.060;2024-03-17T01:25:34;5.30;79.80
19110;DHT22;9687;50.836;12.060;2024-03-17T01:28:04;5.40;80.00
19110;DHT22;9687;50.836;12.060;2024-03-17T01:30:33;5.40;80.10
19110;DHT22;9687;50.836;12.060;2024-03-17T01:33:02;5.40;80.00
19110;DHT22;9687;50.836;12.060;2024-03-17T01:35:33;5.40;80.00
19110;DHT22;9687;50.836;12.060;2024-03-17T01:38:00;5.30;79.80
19110;DHT22;9687;50.836;12.060;2024-03-17T01:40:28;5.20;80.00
19110;DHT22;9687;50.836;12.060;2024-03-17T01:42:56;5.10;80.40
19110;DHT22;9687;50.836;12.060;2024-03-17T01:45:28;5.00;80.70
19110;DHT22;9687;50.836;12.060;2024-03-17T01:47:59;4.90;81.10
19110;DHT22;9687;50.836;12.060;2024-03-17T01:50:30;4.90;81.20
19110;DHT22;9687;50.836;12.060;2024-03-17T01:53:02;4.80;81.40
19110;DHT22;9687;50.836;12.060;2024-03-17T01:55:32;4.80;81.80
19110;DHT22;9687;50.836;12.060;2024-03-17T01:58:02;4.60;82.10
19110;DHT22;9687;50.836;12.060;2024-03-17T02:00:30;4.60;82.70
19110;DHT22;9687;50.836;12.060;2024-03-17T02:03:04;4.50;82.80
19110;DHT22;9687;50.836;12.060;2024-03-17T02:05:31;4.50;82.90
19110;DHT22;9687;50.836;12.060;2024-03-17T02:08:01;4.50;83.10
19110;DHT22;9687;50.836;12.060;2024-03-17T02:10:28;4.40;83.30
19110;DHT22;9687;50.836;12.060;2024-03-17T02:12:57;4.60;83.40
19110;DHT22;9687;50.836;12.060;2024-03-17T02:15:24;4.60;83.20
19110;DHT22;9687;50.836;12.060;2024-03-17T02:17:52;4.60;83.10
19110;DHT22;9687;50.836;12.060;2024-03-17T02:20:21;4.60;82.90
19110;DHT22;9687;50.836;12.060;2024-03-17T02:23:11;4.60;82.70
19110;DHT22;9687;50.836;12.060;2024-03-17T02:25:37;4.60;82.60
19110;DHT22;9687;50.836;12.060;2024-03-17T02:28:07;4.60;82.70
19110;DHT22;9687;50.836;12.060;2024-03-17T02:30:34;4.60;82.90
19110;DHT22;9687;50.836;12.060;2024-03-17T02:33:02;4.60;83.20
19110;DHT22;9687;50.836;12.060;2024-03-17T02:35:50;4.60;83.20
19110;DHT22;9687;50.836;12.060;2024-03-17T02:38:23;4.60;83.20
19110;DHT22;9687;50.836;12.060;2024-03-17T02:41:05;4.60;83.00
19110;DHT22;9687;50.836;12.060;2024-03-17T02:43:34;4.60;83.00
19110;DHT22;9687;50.836;12.060;2024-03-17T02:46:03;4.50;82.80
19110;DHT22;9687;50.836;12.060;2024-03-17T02:48:32;4.60;83.00
19110;DHT22;9687;50.836;12.060;2024-03-17T02:51:01;4.60;83.00
19110;DHT22;9687;50.836;12.060;2024-03-17T02:53:32;4.60;83.10
19110;DHT22;9687;50.836;12.060;2024-03-17T02:56:02;4.60;83.10
19110;DHT22;9687;50.836;12.060;2024-03-17T02:58:30;4.60;83.20
19110;DHT22;9687;50.836;12.060;2024-03-17T03:00:58;4.60;83.40
19110;DHT22;9687;50.836;12.060;2024-03-17T03:03:27;4.60;83.40
19110;DHT22;9687;50.836;12.060;2024-03-17T03:05:54;4.60;84.10
19110;DHT22;9687;50.836;12.060;2024-03-17T03:08:23;4.60;83.40
19110;DHT22;9687;50.836;12.060;2024-03-17T03:10:52;4.60;83.50
19110;DHT22;9687;50.836;12.060;2024-03-17T03:13:20;4.40;83.30
19110;DHT22;9687;50.836;12.060;2024-03-17T03:15:49;4.40;83.60
19110;DHT22;9687;50.836;12.060;2024-03-17T03:18:18;4.40;83.70
19110;DHT22;9687;50.836;12.060;2024-03-17T03:20:50;4.40;84.00
19110;DHT22;9687;50.836;12.060;2024-03-17T03:23:20;4.30;84.10
19110;DHT22;9687;50.836;12.060;2024-03-17T03:25:56;4.30;84.10
19110;DHT22;9687;50.836;12.060;2024-03-17T03:28:25;4.30;84.10
19110;DHT22;9687;50.836;12.060;2024-03-17T03:30:53;4.30;84.30
19110;DHT22;9687;50.836;12.060;2024-03-17T03:35:50;4.30;83.80
19110;DHT22;9687;50.836;12.060;2024-03-17T03:38:18;4.30;84.50
19110;DHT22;9687;50.836;12.060;2024-03-17T03:40:46;4.20;84.40
19110;DHT22;9687;50.836;12.060;2024-03-17T03:43:17;4.20;84.50
19110;DHT22;9687;50.836;12.060;2024-03-17T03:45:45;4.20;84.60
19110;DHT22;9687;50.836;12.060;2024-03-17T03:48:14;4.20;84.70
19110;DHT22;9687;50.836;12.060;2024-03-17T03:50:43;4.20;84.60
19110;DHT22;9687;50.836;12.060;2024-03-17T03:53:11;4.20;84.60
19110;DHT22;9687;50.836;12.060;2024-03-17T03:55:39;4.10;84.50
19110;DHT22;9687;50.836;12.060;2024-03-17T03:58:08;4.10;84.60
19110;DHT22;9687;50.836;12.060;2024-03-17T04:00:40;4.10;84.50
19110;DHT22;9687;50.836;12.060;2024-03-17T04:03:09;4.00;84.40
19110;DHT22;9687;50.836;12.060;2024-03-17T04:05:38;3.90;84.50
19110;DHT22;9687;50.836;12.060;2024-03-17T04:08:06;3.80;84.60
19110;DHT22;9687;50.836;12.060;2024-03-17T04:10:36;3.80;84.90
19110;DHT22;9687;50.836;12.060;2024-03-17T04:13:05;3.70;85.10
19110;DHT22;9687;50.836;12.060;2024-03-17T04:15:33;3.70;85.30
19110;DHT22;9687;50.836;12.060;2024-03-17T04:18:02;3.70;85.40
19110;DHT22;9687;50.836;12.060;2024-03-17T04:20:30;3.70;85.50
19110;DHT22;9687;50.836;12.060;2024-03-17T04:22:58;3.70;85.60
19110;DHT22;9687;50.836;12.060;2024-03-17T04:25:25;3.70;85.80
19110;DHT22;9687;50.836;12.060;2024-03-17T04:27:52;3.70;85.90
19110;DHT22;9687;50.836;12.060;2024-03-17T04:30:20;3.70;86.00
19110;DHT22;9687;50.836;12.060;2024-03-17T04:32:49;3.70;86.10
19110;DHT22;9687;50.836;12.060;2024-03-17T04:35:19;3.60;86.10
19110;DHT22;9687;50.836;12.060;2024-03-17T04:37:49;3.70;86.60
19110;DHT22;9687;50.836;12.060;2024-03-17T04:40:19;3.80;86.70
19110;DHT22;9687;50.836;12.060;2024-03-17T04:42:48;3.80;86.70
19110;DHT22;9687;50.836;12.060;2024-03-17T04:45:16;3.80;86.70
19110;DHT22;9687;50.836;12.060;2024-03-17T04:47:43;3.90;86.70
19110;DHT22;9687;50.836;12.060;2024-03-17T04:50:13;3.90;86.80
19110;DHT22;9687;50.836;12.060;2024-03-17T04:52:43;4.00;86.90
19110;DHT22;9687;50.836;12.060;2024-03-17T04:55:15;4.00;86.90
19110;DHT22;9687;50.836;12.060;2024-03-17T04:57:45;4.10;87.00
19110;DHT22;9687;50.836;12.060;2024-03-17T05:00:14;4.10;86.90
19110;DHT22;9687;50.836;12.060;2024-03-17T05:02:44;4.10;86.50
19110;DHT22;9687;50.836;12.060;2024-03-17T05:05:11;4.10;86.30
19110;DHT22;9687;50.836;12.060;2024-03-17T05:07:41;4.10;86.50
19110;DHT22;9687;50.836;12.060;2024-03-17T05:10:10;4.10;86.50
19110;DHT22;9687;50.836;12.060;2024-03-17T05:12:38;4.10;86.50
19110;DHT22;9687;50.836;12.060;2024-03-17T05:15:06;4.00;86.90
19110;DHT22;9687;50.836;12.060;2024-03-17T05:17:35;4.00;86.90
19110;DHT22;9687;50.836;12.060;2024-03-17T05:20:03;4.00;86.90
19110;DHT22;9687;50.836;12.060;2024-03-17T05:22:33;4.00;86.90
19110;DHT22;9687;50.836;12.060;2024-03-17T05:25:01;4.10;87.00
19110;DHT22;9687;50.836;12.060;2024-03-17T05:27:33;4.10;87.00
19110;DHT22;9687;50.836;12.060;2024-03-17T05:30:01;4.10;87.00
19110;DHT22;9687;50.836;12.060;2024-03-17T05:32:30;4.20;87.10
19110;DHT22;9687;50.836;12.060;2024-03-17T05:34:59;4.20;87.10
19110;DHT22;9687;50.836;12.060;2024-03-17T05:37:28;4.20;87.10
19110;DHT22;9687;50.836;12.060;2024-03-17T05:39:57;4.20;87.10
19110;DHT22;9687;50.836;12.060;2024-03-17T05:42:27;4.30;87.20
19110;DHT22;9687;50.836;12.060;2024-03-17T05:44:56;4.30;87.20
19110;DHT22;9687;50.836;12.060;2024-03-17T05:47:26;4.40;87.30
19110;DHT22;9687;50.836;12.060;2024-03-17T05:49:54;4.40;87.30
19110;DHT22;9687;50.836;12.060;2024-03-17T05:52:23;4.40;87.30
19110;DHT22;9687;50.836;12.060;2024-03-17T05:54:52;4.50;87.40
19110;DHT22;9687;50.836;12.060;2024-03-17T05:57:22;4.50;87.40
19110;DHT22;9687;50.836;12.060;2024-03-17T05:59:50;4.60;87.50
19110;DHT22;9687;50.836;12.060;2024-03-17T06:02:20;4.60;87.60
19110;DHT22;9687;50.836;12.060;2024-03-17T06:04:48;4.70;87.60
19110;DHT22;9687;50.836;12.060;2024-03-17T06:07:15;4.70;87.70
19110;DHT22;9687;50.836;12.060;2024-03-17T06:09:43;4.80;87.70
19110;DHT22;9687;50.836;12.060;2024-03-17T06:12:15;4.90;87.80
19110;DHT22;9687;50.836;12.060;2024-03-17T06:14:43;4.90;87.80
19110;DHT22;9687;50.836;12.060;2024-03-17T06:17:12;5.00;87.90
19110;DHT22;9687;50.836;12.060;2024-03-17T06:19:42;5.00;87.90
19110;DHT22;9687;50.836;12.060;2024-03-17T06:22:10;5.10;88.00
19110;DHT22;9687;50.836;12.060;2024-03-17T06:24:39;5.10;88.00
19110;DHT22;9687;50.836;12.060;2024-03-17T06:27:07;5.20;88.20
19110;DHT22;9687;50.836;12.060;2024-03-17T06:29:36;5.30;88.20
19110;DHT22;9687;50.836;12.060;2024-03-17T06:32:04;5.30;88.20
19110;DHT22;9687;50.836;12.060;2024-03-17T06:34:33;5.30;87.90
19110;DHT22;9687;50.836;12.060;2024-03-17T06:37:01;5.30;88.00
19110;DHT22;9687;50.836;12.060;2024-03-17T06:39:29;5.30;87.80
19110;DHT22;9687;50.836;12.060;2024-03-17T06:41:57;5.40;88.00
19110;DHT22;9687;50.836;12.060;2024-03-17T06:44:26;5.30;87.80
19110;DHT22;9687;50.836;12.060;2024-03-17T06:46:57;5.20;88.10
19110;DHT22;9687;50.836;12.060;2024-03-17T06:49:26;5.20;88.10
19110;DHT22;9687;50.836;12.060;2024-03-17T06:51:53;5.20;88.10
19110;DHT22;9687;50.836;12.060;2024-03-17T06:54:23;5.20;88.90
19110;DHT22;9687;50.836;12.060;2024-03-17T06:56:51;5.10;89.30
19110;DHT22;9687;50.836;12.060;2024-03-17T06:59:19;5.10;89.80
19110;DHT22;9687;50.836;12.060;2024-03-17T07:01:48;5.10;90.00
19110;DHT22;9687;50.836;12.060;2024-03-17T07:04:19;5.20;90.10
19110;DHT22;9687;50.836;12.060;2024-03-17T07:06:47;5.10;90.70
19110;DHT22;9687;50.836;12.060;2024-03-17T07:09:14;5.10;90.50
19110;DHT22;9687;50.836;12.060;2024-03-17T07:11:44;5.20;90.70
19110;DHT22;9687;50.836;12.060;2024-03-17T07:14:12;5.30;90.70
19110;DHT22;9687;50.836;12.060;2024-03-17T07:16:41;5.40;90.80
19110;DHT22;9687;50.836;12.060;2024-03-17T07:19:09;5.50;90.80
19110;DHT22;9687;50.836;12.060;2024-03-17T07:21:37;5.60;90.80
19110;DHT22;9687;50.836;12.060;2024-03-17T07:24:05;5.70;90.90
19110;DHT22;9687;50.836;12.060;2024-03-17T07:26:34;5.90;90.90
19110;DHT22;9687;50.836;12.060;2024-03-17T07:29:04;6.10;90.90
19110;DHT22;9687;50.836;12.060;2024-03-17T07:31:31;6.10;90.70
19110;DHT22;9687;50.836;12.060;2024-03-17T07:33:59;6.20;90.60
19110;DHT22;9687;50.836;12.060;2024-03-17T07:36:26;6.30;90.60
19110;DHT22;9687;50.836;12.060;2024-03-17T07:38:55;6.40;90.60
19110;DHT22;9687;50.836;12.060;2024-03-17T07:41:23;6.50;90.50
19110;DHT22;9687;50.836;12.060;2024-03-17T07:43:51;6.60;90.50
19110;DHT22;9687;50.836;12.060;2024-03-17T07:46:21;6.70;90.60
19110;DHT22;9687;50.836;12.060;2024-03-17T07:48:50;6.80;90.50
19110;DHT22;9687;50.836;12.060;2024-03-17T07:51:18;6.90;90.50
19110;DHT22;9687;50.836;12.060;2024-03-17T07:53:47;7.00;90.40
19110;DHT22;9687;50.836;12.060;2024-03-17T07:56:17;7.10;90.60
19110;DHT22;9687;50.836;12.060;2024-03-17T07:58:46;7.20;90.40
19110;DHT22;9687;50.836;12.060;2024-03-17T08:01:17;7.40;90.50
19110;DHT22;9687;50.836;12.060;2024-03-17T08:03:46;7.50;90.40
19110;DHT22;9687;50.836;12.060;2024-03-17T08:06:17;7.70;90.20
19110;DHT22;9687;50.836;12.060;2024-03-17T08:08:47;7.90;90.30
19110;DHT22;9687;50.836;12.060;2024-03-17T08:11:15;8.20;90.30
19110;DHT22;9687;50.836;12.060;2024-03-17T08:13:45;8.60;90.10
19110;DHT22;9687;50.836;12.060;2024-03-17T08:16:14;9.00;89.40
19110;DHT22;9687;50.836;12.060;2024-03-17T08:18:41;9.40;88.70
19110;DHT22;9687;50.836;12.060;2024-03-17T08:21:11;9.70;87.60
19110;DHT22;9687;50.836;12.060;2024-03-17T08:23:40;10.00;85.00
19110;DHT22;9687;50.836;12.060;2024-03-17T08:26:09;10.20;84.00
19110;DHT22;9687;50.836;12.060;2024-03-17T08:28:37;10.40;83.90
19110;DHT22;9687;50.836;12.060;2024-03-17T08:31:05;10.60;83.10
19110;DHT22;9687;50.836;12.060;2024-03-17T08:33:34;10.90;83.00
19110;DHT22;9687;50.836;12.060;2024-03-17T08:36:05;11.30;82.30
19110;DHT22;9687;50.836;12.060;2024-03-17T08:38:36;12.00;82.50
19110;DHT22;9687;50.836;12.060;2024-03-17T08:41:05;12.70;80.20
19110;DHT22;9687;50.836;12.060;2024-03-17T08:43:34;13.20;78.10
19110;DHT22;9687;50.836;12.060;2024-03-17T08:46:04;13.70;76.80
19110;DHT22;9687;50.836;12.060;2024-03-17T08:48:34;14.00;74.70
19110;DHT22;9687;50.836;12.060;2024-03-17T08:51:03;14.20;72.50
19110;DHT22;9687;50.836;12.060;2024-03-17T08:53:31;14.50;72.20
19110;DHT22;9687;50.836;12.060;2024-03-17T08:56:00;14.70;71.00
19110;DHT22;9687;50.836;12.060;2024-03-17T08:58:30;14.90;70.50
19110;DHT22;9687;50.836;12.060;2024-03-17T09:00:58;15.50;70.40
19110;DHT22;9687;50.836;12.060;2024-03-17T09:03:25;16.50;83.80
19110;DHT22;9687;50.836;12.060;2024-03-17T09:05:53;17.70;68.60
19110;DHT22;9687;50.836;12.060;2024-03-17T09:08:22;19.30;65.50
19110;DHT22;9687;50.836;12.060;2024-03-17T09:10:53;20.40;60.30
19110;DHT22;9687;50.836;12.060;2024-03-17T09:13:24;21.30;57.90
19110;DHT22;9687;50.836;12.060;2024-03-17T09:15:53;21.80;55.40
19110;DHT22;9687;50.836;12.060;2024-03-17T09:18:23;21.80;52.80
19110;DHT22;9687;50.836;12.060;2024-03-17T09:20:58;22.20;53.20
19110;DHT22;9687;50.836;12.060;2024-03-17T09:23:25;23.10;53.00
19110;DHT22;9687;50.836;12.060;2024-03-17T09:25:56;24.20;51.00
19110;DHT22;9687;50.836;12.060;2024-03-17T09:28:27;24.90;48.90
19110;DHT22;9687;50.836;12.060;2024-03-17T09:30:53;25.70;47.10
19110;DHT22;9687;50.836;12.060;2024-03-17T09:33:23;25.70;44.20
19110;DHT22;9687;50.836;12.060;2024-03-17T09:35:55;24.80;42.40
19110;DHT22;9687;50.836;12.060;2024-03-17T09:38:23;23.60;42.30
19110;DHT22;9687;50.836;12.060;2024-03-17T09:40:52;22.50;43.00
19110;DHT22;9687;50.836;12.060;2024-03-17T09:43:21;21.40;43.80
19110;DHT22;9687;50.836;12.060;2024-03-17T09:45:51;20.40;44.50
19110;DHT22;9687;50.836;12.060;2024-03-17T09:48:23;19.60;45.20
19110;DHT22;9687;50.836;12.060;2024-03-17T09:50:57;18.80;46.00
19110;DHT22;9687;50.836;12.060;2024-03-17T09:53:27;18.20;47.00
19110;DHT22;9687;50.836;12.060;2024-03-17T09:55:59;17.80;47.70
19110;DHT22;9687;50.836;12.060;2024-03-17T09:58:29;17.60;48.10
19110;DHT22;9687;50.836;12.060;2024-03-17T10:00:57;17.20;47.50
19110;DHT22;9687;50.836;12.060;2024-03-17T10:03:41;17.00;47.80
19110;DHT22;9687;50.836;12.060;2024-03-17T10:06:12;16.70;48.20
19110;DHT22;9687;50.836;12.060;2024-03-17T10:08:41;16.50;48.20
19110;DHT22;9687;50.836;12.060;2024-03-17T10:11:09;16.30;48.10
19110;DHT22;9687;50.836;12.060;2024-03-17T10:13:38;16.10;48.50
19110;DHT22;9687;50.836;12.060;2024-03-17T10:16:21;15.80;48.70
19110;DHT22;9687;50.836;12.060;2024-03-17T10:18:50;15.90;49.60
19110;DHT22;9687;50.836;12.060;2024-03-17T10:21:26;16.50;50.30
19110;DHT22;9687;50.836;12.060;2024-03-17T10:24:05;17.60;49.90
19110;DHT22;9687;50.836;12.060;2024-03-17T10:26:44;18.90;49.50
19110;DHT22;9687;50.836;12.060;2024-03-17T10:29:21;20.50;48.90
19110;DHT22;9687;50.836;12.060;2024-03-17T10:31:50;21.90;47.60
19110;DHT22;9687;50.836;12.060;2024-03-17T10:34:18;22.90;45.00
19110;DHT22;9687;50.836;12.060;2024-03-17T10:36:45;23.60;43.80
19110;DHT22;9687;50.836;12.060;2024-03-17T10:39:23;24.20;43.00
19110;DHT22;9687;50.836;12.060;2024-03-17T10:42:01;24.50;41.90
19110;DHT22;9687;50.836;12.060;2024-03-17T10:44:30;24.30;40.60
19110;DHT22;9687;50.836;12.060;2024-03-17T10:47:00;23.80;40.70
19110;DHT22;9687;50.836;12.060;2024-03-17T10:49:30;23.60;41.30
19110;DHT22;9687;50.836;12.060;2024-03-17T10:51:59;23.70;41.70
19110;DHT22;9687;50.836;12.060;2024-03-17T10:54:27;24.10;41.70
19110;DHT22;9687;50.836;12.060;2024-03-17T10:56:57;24.40;40.50
19110;DHT22;9687;50.836;12.060;2024-03-17T10:59:35;24.60;40.40
19110;DHT22;9687;50.836;12.060;2024-03-17T11:02:21;24.90;40.30
19110;DHT22;9687;50.836;12.060;2024-03-17T11:04:54;25.30;39.80
19110;DHT22;9687;50.836;12.060;2024-03-17T11:07:24;25.70;39.40
19110;DHT22;9687;50.836;12.060;2024-03-17T11:09:55;25.90;39.00
19110;DHT22;9687;50.836;12.060;2024-03-17T11:12:44;26.00;38.50
19110;DHT22;9687;50.836;12.060;2024-03-17T11:15:36;26.20;38.50
19110;DHT22;9687;50.836;12.060;2024-03-17T11:18:35;26.50;37.80
19110;DHT22;9687;50.836;12.060;2024-03-17T11:21:22;26.80;37.30
19110;DHT22;9687;50.836;12.060;2024-03-17T11:23:57;27.10;37.00
19110;DHT22;9687;50.836;12.060;2024-03-17T11:26:31;27.40;36.60
19110;DHT22;9687;50.836;12.060;2024-03-17T11:29:00;27.50;36.30
19110;DHT22;9687;50.836;12.060;2024-03-17T11:31:41;27.60;36.20
19110;DHT22;9687;50.836;12.060;2024-03-17T11:34:33;27.70;35.60
19110;DHT22;9687;50.836;12.060;2024-03-17T11:37:03;27.60;34.90
19110;DHT22;9687;50.836;12.060;2024-03-17T11:39:49;27.40;34.90
19110;DHT22;9687;50.836;12.060;2024-03-17T11:42:17;26.90;34.10
19110;DHT22;9687;50.836;12.060;2024-03-17T11:45:00;26.50;35.10
19110;DHT22;9687;50.836;12.060;2024-03-17T11:47:35;26.30;35.20
19110;DHT22;9687;50.836;12.060;2024-03-17T11:50:08;26.40;35.70
19110;DHT22;9687;50.836;12.060;2024-03-17T11:52:38;26.50;35.10
19110;DHT22;9687;50.836;12.060;2024-03-17T11:55:16;26.40;34.30
19110;DHT22;9687;50.836;12.060;2024-03-17T11:57:43;26.40;34.80
19110;DHT22;9687;50.836;12.060;2024-03-17T12:00:20;26.40;34.60
19110;DHT22;9687;50.836;12.060;2024-03-17T12:02:49;26.40;34.50
19110;DHT22;9687;50.836;12.060;2024-03-17T12:05:20;26.40;34.70
19110;DHT22;9687;50.836;12.060;2024-03-17T12:07:48;26.40;34.40
19110;DHT22;9687;50.836;12.060;2024-03-17T12:10:16;26.40;34.50
19110;DHT22;9687;50.836;12.060;2024-03-17T12:12:47;26.40;33.80
19110;DHT22;9687;50.836;12.060;2024-03-17T12:15:17;26.10;33.60
19110;DHT22;9687;50.836;12.060;2024-03-17T12:17:52;25.90;34.00
19110;DHT22;9687;50.836;12.060;2024-03-17T12:20:21;25.90;34.50
19110;DHT22;9687;50.836;12.060;2024-03-17T12:22:48;25.90;34.20
19110;DHT22;9687;50.836;12.060;2024-03-17T12:25:19;25.80;33.50
19110;DHT22;9687;50.836;12.060;2024-03-17T12:27:47;25.60;33.30
19110;DHT22;9687;50.836;12.060;2024-03-17T12:30:17;25.50;34.20
19110;DHT22;9687;50.836;12.060;2024-03-17T12:32:45;25.60;35.10
19110;DHT22;9687;50.836;12.060;2024-03-17T12:35:15;25.70;34.90
19110;DHT22;9687;50.836;12.060;2024-03-17T12:37:45;25.80;34.90
19110;DHT22;9687;50.836;12.060;2024-03-17T12:40:20;25.70;34.40
19110;DHT22;9687;50.836;12.060;2024-03-17T12:42:50;25.50;34.70
19110;DHT22;9687;50.836;12.060;2024-03-17T12:45:24;25.30;35.10
19110;DHT22;9687;50.836;12.060;2024-03-17T12:47:53;25.30;35.50
19110;DHT22;9687;50.836;12.060;2024-03-17T12:50:27;25.40;35.20
19110;DHT22;9687;50.836;12.060;2024-03-17T12:52:58;25.30;34.70
19110;DHT22;9687;50.836;12.060;2024-03-17T12:55:25;25.00;35.00
19110;DHT22;9687;50.836;12.060;2024-03-17T12:58:14;24.80;35.10
19110;DHT22;9687;50.836;12.060;2024-03-17T13:01:02;24.70;35.40
19110;DHT22;9687;50.836;12.060;2024-03-17T13:03:34;24.60;34.70
19110;DHT22;9687;50.836;12.060;2024-03-17T13:06:09;24.40;35.00
19110;DHT22;9687;50.836;12.060;2024-03-17T13:08:39;24.20;35.20
19110;DHT22;9687;50.836;12.060;2024-03-17T13:11:08;24.00;35.10
19110;DHT22;9687;50.836;12.060;2024-03-17T13:13:37;23.80;34.90
19110;DHT22;9687;50.836;12.060;2024-03-17T13:16:05;23.50;34.80
19110;DHT22;9687;50.836;12.060;2024-03-17T13:18:35;23.20;34.70
19110;DHT22;9687;50.836;12.060;2024-03-17T13:21:07;22.70;34.80
19110;DHT22;9687;50.836;12.060;2024-03-17T13:23:38;22.20;35.30
19110;DHT22;9687;50.836;12.060;2024-03-17T13:26:08;21.80;35.70
19110;DHT22;9687;50.836;12.060;2024-03-17T13:28:37;21.30;36.10
19110;DHT22;9687;50.836;12.060;2024-03-17T13:31:10;20.90;36.70
19110;DHT22;9687;50.836;12.060;2024-03-17T13:33:40;20.60;37.20
19110;DHT22;9687;50.836;12.060;2024-03-17T13:36:09;20.50;37.70
19110;DHT22;9687;50.836;12.060;2024-03-17T13:38:39;20.40;38.40
19110;DHT22;9687;50.836;12.060;2024-03-17T13:41:09;20.50;38.80
19110;DHT22;9687;50.836;12.060;2024-03-17T13:43:41;20.50;38.60
19110;DHT22;9687;50.836;12.060;2024-03-17T13:46:11;20.50;38.50
19110;DHT22;9687;50.836;12.060;2024-03-17T13:48:38;20.50;39.00
19110;DHT22;9687;50.836;12.060;2024-03-17T13:51:08;20.70;39.00
19110;DHT22;9687;50.836;12.060;2024-03-17T13:53:36;20.70;39.10
19110;DHT22;9687;50.836;12.060;2024-03-17T13:56:05;20.70;38.40
19110;DHT22;9687;50.836;12.060;2024-03-17T13:58:36;20.70;38.70
19110;DHT22;9687;50.836;12.060;2024-03-17T14:01:03;20.80;38.70
19110;DHT22;9687;50.836;12.060;2024-03-17T14:03:31;20.80;38.70
19110;DHT22;9687;50.836;12.060;2024-03-17T14:05:59;20.80;38.70
19110;DHT22;9687;50.836;12.060;2024-03-17T14:08:29;20.90;38.70
19110;DHT22;9687;50.836;12.060;2024-03-17T14:10:56;21.00;38.90
19110;DHT22;9687;50.836;12.060;2024-03-17T14:13:26;21.00;38.20
19110;DHT22;9687;50.836;12.060;2024-03-17T14:15:55;21.00;38.30
19110;DHT22;9687;50.836;12.060;2024-03-17T14:18:25;21.00;37.90
19110;DHT22;9687;50.836;12.060;2024-03-17T14:20:53;21.10;38.50
19110;DHT22;9687;50.836;12.060;2024-03-17T14:23:22;21.10;38.50
19110;DHT22;9687;50.836;12.060;2024-03-17T14:25:51;21.20;38.40
19110;DHT22;9687;50.836;12.060;2024-03-17T14:28:18;21.30;37.80
19110;DHT22;9687;50.836;12.060;2024-03-17T14:30:50;21.20;37.50
19110;DHT22;9687;50.836;12.060;2024-03-17T14:33:19;21.10;38.30
19110;DHT22;9687;50.836;12.060;2024-03-17T14:35:56;21.00;37.60
19110;DHT22;9687;50.836;12.060;2024-03-17T14:38:23;20.80;37.80
19110;DHT22;9687;50.836;12.060;2024-03-17T14:40:52;20.80;37.90
19110;DHT22;9687;50.836;12.060;2024-03-17T14:43:20;20.80;37.90
19110;DHT22;9687;50.836;12.060;2024-03-17T14:45:50;20.90;38.00
19110;DHT22;9687;50.836;12.060;2024-03-17T14:48:18;21.00;38.10
19110;DHT22;9687;50.836;12.060;2024-03-17T14:50:46;21.10;37.90
19110;DHT22;9687;50.836;12.060;2024-03-17T14:53:13;21.20;37.90
19110;DHT22;9687;50.836;12.060;2024-03-17T14:55:43;21.30;38.30
19110;DHT22;9687;50.836;12.060;2024-03-17T14:58:12;21.40;38.00
19110;DHT22;9687;50.836;12.060;2024-03-17T15:00:41;21.50;38.00
19110;DHT22;9687;50.836;12.060;2024-03-17T15:03:10;21.40;37.50
19110;DHT22;9687;50.836;12.060;2024-03-17T15:05:37;21.40;37.50
19110;DHT22;9687;50.836;12.060;2024-03-17T15:08:05;21.20;37.10
19110;DHT22;9687;50.836;12.060;2024-03-17T15:10:36;21.00;37.10
19110;DHT22;9687;50.836;12.060;2024-03-17T15:13:05;20.80;37.10
19110;DHT22;9687;50.836;12.060;2024-03-17T15:15:32;20.70;37.50
19110;DHT22;9687;50.836;12.060;2024-03-17T15:18:00;20.50;37.40
19110;DHT22;9687;50.836;12.060;2024-03-17T15:20:30;20.20;37.60
19110;DHT22;9687;50.836;12.060;2024-03-17T15:22:58;20.00;37.60
19110;DHT22;9687;50.836;12.060;2024-03-17T15:25:28;19.80;37.80
19110;DHT22;9687;50.836;12.060;2024-03-17T15:27:58;19.70;38.30
19110;DHT22;9687;50.836;12.060;2024-03-17T15:30:28;19.60;38.50
19110;DHT22;9687;50.836;12.060;2024-03-17T15:32:56;19.40;38.30
19110;DHT22;9687;50.836;12.060;2024-03-17T15:35:25;19.20;38.20
19110;DHT22;9687;50.836;12.060;2024-03-17T15:37:59;18.90;38.20
19110;DHT22;9687;50.836;12.060;2024-03-17T15:40:30;18.60;38.50
19110;DHT22;9687;50.836;12.060;2024-03-17T15:42:59;18.40;38.70
19110;DHT22;9687;50.836;12.060;2024-03-17T15:45:28;18.10;38.80
19110;DHT22;9687;50.836;12.060;2024-03-17T15:47:56;17.80;39.00
19110;DHT22;9687;50.836;12.060;2024-03-17T15:50:25;17.60;39.40
19110;DHT22;9687;50.836;12.060;2024-03-17T15:52:52;17.40;39.80
19110;DHT22;9687;50.836;12.060;2024-03-17T15:55:22;17.20;40.10
19110;DHT22;9687;50.836;12.060;2024-03-17T15:57:50;17.00;40.30
19110;DHT22;9687;50.836;12.060;2024-03-17T16:00:21;16.80;40.70